sensor_id;sensor_type;location;lat;lon;timestamp;P1;durP1;ratioP1;P2;durP2;ratioP2
19828;SDS011;10075;50.924;4.396;2023-01-25T00:00:51;43.60;;;30.63;;
19828;SDS011;10075;50.924;4.396;2023-01-25T00:03:19;47.33;;;32.90;;
19828;SDS011;10075;50.924;4.396;2023-01-25T00:05:46;43.57;;;28.23;;
19828;SDS011;10075;50.924;4.396;2023-01-25T00:08:13;49.07;;;30.57;;
19828;SDS011;10075;50.924;4.396;2023-01-25T00:10:40;46.40;;;31.10;;
19828;SDS011;10075;50.924;4.396;2023-01-25T00:13:07;45.83;;;30.67;;
19828;SDS011;10075;50.924;4.396;2023-01-25T00:15:34;47.47;;;31.00;;
19828;SDS011;10075;50.924;4.396;2023-01-25T00:18:01;47.87;;;31.70;;
19828;SDS011;10075;50.924;4.396;2023-01-25T00:20:30;47.60;;;31.27;;
19828;SDS011;10075;50.924;4.396;2023-01-25T00:22:57;47.53;;;31.33;;
19828;SDS011;10075;50.924;4.396;2023-01-25T00:25:24;49.70;;;32.67;;
19828;SDS011;10075;50.924;4.396;2023-01-25T00:27:51;40.43;;;27.80;;
19828;SDS011;10075;50.924;4.396;2023-01-25T00:30:18;45.13;;;29.70;;
19828;SDS011;10075;50.924;4.396;2023-01-25T00:32:51;41.77;;;29.57;;
19828;SDS011;10075;50.924;4.396;2023-01-25T00:35:23;41.97;;;29.00;;
19828;SDS011;10075;50.924;4.396;2023-01-25T00:37:57;46.23;;;31.60;;
19828;SDS011;10075;50.924;4.396;2023-01-25T00:40:27;47.40;;;30.77;;
19828;SDS011;10075;50.924;4.396;2023-01-25T00:42:54;46.57;;;30.67;;
19828;SDS011;10075;50.924;4.396;2023-01-25T00:45:21;46.47;;;32.67;;
19828;SDS011;10075;50.924;4.396;2023-01-25T00:47:48;44.83;;;30.13;;
19828;SDS011;10075;50.924;4.396;2023-01-25T00:50:19;46.10;;;31.80;;
19828;SDS011;10075;50.924;4.396;2023-01-25T00:52:47;46.13;;;30.77;;
19828;SDS011;10075;50.924;4.396;2023-01-25T00:55:14;48.40;;;32.13;;
19828;SDS011;10075;50.924;4.396;2023-01-25T00:57:41;47.33;;;31.60;;
19828;SDS011;10075;50.924;4.396;2023-01-25T01:00:09;49.63;;;33.47;;
19828;SDS011;10075;50.924;4.396;2023-01-25T01:02:36;46.23;;;32.20;;
19828;SDS011;10075;50.924;4.396;2023-01-25T01:05:04;46.87;;;31.97;;
19828;SDS011;10075;50.924;4.396;2023-01-25T01:07:31;48.07;;;32.13;;
19828;SDS011;10075;50.924;4.396;2023-01-25T01:09:59;49.37;;;31.27;;
19828;SDS011;10075;50.924;4.396;2023-01-25T01:12:26;48.90;;;31.67;;
19828;SDS011;10075;50.924;4.396;2023-01-25T01:14:53;44.63;;;30.60;;
19828;SDS011;10075;50.924;4.396;2023-01-25T01:17:21;49.63;;;31.87;;
19828;SDS011;10075;50.924;4.396;2023-01-25T01:19:48;48.97;;;32.70;;
19828;SDS011;10075;50.924;4.396;2023-01-25T01:22:15;45.77;;;30.47;;
19828;SDS011;10075;50.924;4.396;2023-01-25T01:24:42;45.33;;;31.80;;
19828;SDS011;10075;50.924;4.396;2023-01-25T01:27:10;46.53;;;31.40;;
19828;SDS011;10075;50.924;4.396;2023-01-25T01:29:37;45.27;;;30.73;;
19828;SDS011;10075;50.924;4.396;2023-01-25T01:32:04;46.70;;;30.97;;
19828;SDS011;10075;50.924;4.396;2023-01-25T01:34:31;42.33;;;28.27;;
19828;SDS011;10075;50.924;4.396;2023-01-25T01:36:59;43.70;;;30.27;;
19828;SDS011;10075;50.924;4.396;2023-01-25T01:39:26;44.43;;;29.57;;
19828;SDS011;10075;50.924;4.396;2023-01-25T01:41:53;45.50;;;30.77;;
19828;SDS011;10075;50.924;4.396;2023-01-25T01:47:12;45.73;;;29.70;;
19828;SDS011;10075;50.924;4.396;2023-01-25T01:49:43;44.47;;;30.40;;
19828;SDS011;10075;50.924;4.396;2023-01-25T01:52:15;46.83;;;31.53;;
19828;SDS011;10075;50.924;4.396;2023-01-25T01:54:46;42.77;;;30.30;;
19828;SDS011;10075;50.924;4.396;2023-01-25T01:57:19;44.83;;;30.90;;
19828;SDS011;10075;50.924;4.396;2023-01-25T01:59:51;51.93;;;32.13;;
19828;SDS011;10075;50.924;4.396;2023-01-25T02:02:21;50.23;;;30.70;;
19828;SDS011;10075;50.924;4.396;2023-01-25T02:04:49;45.93;;;30.80;;
19828;SDS011;10075;50.924;4.396;2023-01-25T02:07:20;48.20;;;31.50;;
19828;SDS011;10075;50.924;4.396;2023-01-25T02:09:50;45.90;;;31.70;;
19828;SDS011;10075;50.924;4.396;2023-01-25T02:12:17;43.60;;;31.00;;
19828;SDS011;10075;50.924;4.396;2023-01-25T02:14:48;45.87;;;30.67;;
19828;SDS011;10075;50.924;4.396;2023-01-25T02:17:18;45.10;;;30.40;;
19828;SDS011;10075;50.924;4.396;2023-01-25T02:19:50;49.30;;;32.93;;
19828;SDS011;10075;50.924;4.396;2023-01-25T02:22:24;51.20;;;32.40;;
19828;SDS011;10075;50.924;4.396;2023-01-25T02:25:00;51.70;;;33.47;;
19828;SDS011;10075;50.924;4.396;2023-01-25T02:27:29;52.77;;;33.50;;
19828;SDS011;10075;50.924;4.396;2023-01-25T02:29:57;48.90;;;32.80;;
19828;SDS011;10075;50.924;4.396;2023-01-25T02:32:25;52.83;;;33.63;;
19828;SDS011;10075;50.924;4.396;2023-01-25T02:34:52;51.87;;;32.73;;
19828;SDS011;10075;50.924;4.396;2023-01-25T02:37:19;48.47;;;31.77;;
19828;SDS011;10075;50.924;4.396;2023-01-25T02:39:46;46.67;;;30.77;;
19828;SDS011;10075;50.924;4.396;2023-01-25T02:42:14;47.07;;;32.00;;
19828;SDS011;10075;50.924;4.396;2023-01-25T02:44:41;49.23;;;34.20;;
19828;SDS011;10075;50.924;4.396;2023-01-25T02:47:08;52.07;;;34.57;;
19828;SDS011;10075;50.924;4.396;2023-01-25T02:49:35;49.20;;;31.67;;
19828;SDS011;10075;50.924;4.396;2023-01-25T02:52:03;47.07;;;31.03;;
19828;SDS011;10075;50.924;4.396;2023-01-25T02:54:31;49.37;;;31.97;;
19828;SDS011;10075;50.924;4.396;2023-01-25T02:56:58;51.03;;;32.23;;
19828;SDS011;10075;50.924;4.396;2023-01-25T02:59:26;44.87;;;31.60;;
19828;SDS011;10075;50.924;4.396;2023-01-25T03:01:53;50.77;;;32.43;;
19828;SDS011;10075;50.924;4.396;2023-01-25T03:04:20;50.00;;;32.50;;
19828;SDS011;10075;50.924;4.396;2023-01-25T03:06:47;48.17;;;32.03;;
19828;SDS011;10075;50.924;4.396;2023-01-25T03:09:15;46.50;;;30.50;;
19828;SDS011;10075;50.924;4.396;2023-01-25T03:11:42;49.17;;;31.90;;
19828;SDS011;10075;50.924;4.396;2023-01-25T03:14:09;50.27;;;33.17;;
19828;SDS011;10075;50.924;4.396;2023-01-25T03:16:38;53.57;;;34.27;;
19828;SDS011;10075;50.924;4.396;2023-01-25T03:19:05;47.23;;;31.47;;
19828;SDS011;10075;50.924;4.396;2023-01-25T03:21:32;48.90;;;32.23;;
19828;SDS011;10075;50.924;4.396;2023-01-25T03:23:59;49.77;;;31.20;;
19828;SDS011;10075;50.924;4.396;2023-01-25T03:26:27;53.73;;;33.57;;
19828;SDS011;10075;50.924;4.396;2023-01-25T03:28:55;47.13;;;32.13;;
19828;SDS011;10075;50.924;4.396;2023-01-25T03:31:22;55.57;;;35.93;;
19828;SDS011;10075;50.924;4.396;2023-01-25T03:33:51;54.73;;;35.80;;
19828;SDS011;10075;50.924;4.396;2023-01-25T03:36:18;52.77;;;34.03;;
19828;SDS011;10075;50.924;4.396;2023-01-25T03:38:45;49.20;;;33.17;;
19828;SDS011;10075;50.924;4.396;2023-01-25T03:41:11;50.00;;;32.37;;
19828;SDS011;10075;50.924;4.396;2023-01-25T03:43:39;48.93;;;30.83;;
19828;SDS011;10075;50.924;4.396;2023-01-25T03:46:06;46.43;;;29.73;;
19828;SDS011;10075;50.924;4.396;2023-01-25T03:48:33;48.63;;;31.73;;
19828;SDS011;10075;50.924;4.396;2023-01-25T03:51:01;46.57;;;31.90;;
19828;SDS011;10075;50.924;4.396;2023-01-25T03:53:28;47.67;;;31.33;;
19828;SDS011;10075;50.924;4.396;2023-01-25T03:55:57;52.50;;;33.53;;
19828;SDS011;10075;50.924;4.396;2023-01-25T03:58:25;48.53;;;32.03;;
19828;SDS011;10075;50.924;4.396;2023-01-25T04:00:53;48.57;;;32.37;;
19828;SDS011;10075;50.924;4.396;2023-01-25T04:03:21;44.13;;;30.10;;
19828;SDS011;10075;50.924;4.396;2023-01-25T04:05:50;45.83;;;30.90;;
19828;SDS011;10075;50.924;4.396;2023-01-25T04:08:18;47.23;;;31.27;;
19828;SDS011;10075;50.924;4.396;2023-01-25T04:10:48;47.60;;;31.27;;
19828;SDS011;10075;50.924;4.396;2023-01-25T04:13:17;45.93;;;30.80;;
19828;SDS011;10075;50.924;4.396;2023-01-25T04:15:44;48.53;;;31.23;;
19828;SDS011;10075;50.924;4.396;2023-01-25T04:18:11;48.97;;;31.00;;
19828;SDS011;10075;50.924;4.396;2023-01-25T04:20:38;50.13;;;31.90;;
19828;SDS011;10075;50.924;4.396;2023-01-25T04:23:06;50.03;;;32.73;;
19828;SDS011;10075;50.924;4.396;2023-01-25T04:25:34;46.93;;;29.53;;
19828;SDS011;10075;50.924;4.396;2023-01-25T04:28:02;43.20;;;28.50;;
19828;SDS011;10075;50.924;4.396;2023-01-25T04:30:29;43.20;;;28.80;;
19828;SDS011;10075;50.924;4.396;2023-01-25T04:32:59;47.57;;;28.93;;
19828;SDS011;10075;50.924;4.396;2023-01-25T04:35:28;46.37;;;29.63;;
19828;SDS011;10075;50.924;4.396;2023-01-25T04:37:55;46.03;;;30.90;;
19828;SDS011;10075;50.924;4.396;2023-01-25T04:40:23;46.00;;;30.43;;
19828;SDS011;10075;50.924;4.396;2023-01-25T04:42:52;44.07;;;28.80;;
19828;SDS011;10075;50.924;4.396;2023-01-25T04:45:19;44.30;;;28.73;;
19828;SDS011;10075;50.924;4.396;2023-01-25T04:47:46;51.00;;;32.03;;
19828;SDS011;10075;50.924;4.396;2023-01-25T04:50:13;46.63;;;30.30;;
19828;SDS011;10075;50.924;4.396;2023-01-25T04:52:40;44.43;;;28.63;;
19828;SDS011;10075;50.924;4.396;2023-01-25T04:55:07;48.67;;;30.57;;
19828;SDS011;10075;50.924;4.396;2023-01-25T04:57:34;45.00;;;29.23;;
19828;SDS011;10075;50.924;4.396;2023-01-25T05:00:03;43.57;;;27.43;;
19828;SDS011;10075;50.924;4.396;2023-01-25T05:02:31;44.60;;;29.00;;
19828;SDS011;10075;50.924;4.396;2023-01-25T05:04:58;48.33;;;32.37;;
19828;SDS011;10075;50.924;4.396;2023-01-25T05:07:25;49.20;;;32.00;;
19828;SDS011;10075;50.924;4.396;2023-01-25T05:09:52;53.63;;;34.43;;
19828;SDS011;10075;50.924;4.396;2023-01-25T05:12:19;48.10;;;32.00;;
19828;SDS011;10075;50.924;4.396;2023-01-25T05:14:46;50.60;;;32.67;;
19828;SDS011;10075;50.924;4.396;2023-01-25T05:17:14;56.00;;;34.23;;
19828;SDS011;10075;50.924;4.396;2023-01-25T05:19:41;52.77;;;32.73;;
19828;SDS011;10075;50.924;4.396;2023-01-25T05:22:10;53.93;;;33.70;;
19828;SDS011;10075;50.924;4.396;2023-01-25T05:24:39;53.27;;;32.53;;
19828;SDS011;10075;50.924;4.396;2023-01-25T05:27:06;51.30;;;32.97;;
19828;SDS011;10075;50.924;4.396;2023-01-25T05:29:33;49.93;;;31.97;;
19828;SDS011;10075;50.924;4.396;2023-01-25T05:32:01;53.70;;;33.77;;
19828;SDS011;10075;50.924;4.396;2023-01-25T05:34:30;50.07;;;31.33;;
19828;SDS011;10075;50.924;4.396;2023-01-25T05:36:57;49.10;;;31.37;;
19828;SDS011;10075;50.924;4.396;2023-01-25T05:39:24;53.37;;;31.90;;
19828;SDS011;10075;50.924;4.396;2023-01-25T05:41:52;48.33;;;30.97;;
19828;SDS011;10075;50.924;4.396;2023-01-25T05:44:19;48.47;;;30.37;;
19828;SDS011;10075;50.924;4.396;2023-01-25T05:46:46;49.23;;;32.27;;
19828;SDS011;10075;50.924;4.396;2023-01-25T05:49:13;54.97;;;32.80;;
19828;SDS011;10075;50.924;4.396;2023-01-25T05:51:42;51.00;;;31.80;;
19828;SDS011;10075;50.924;4.396;2023-01-25T05:54:11;45.53;;;29.63;;
19828;SDS011;10075;50.924;4.396;2023-01-25T05:56:40;48.77;;;30.63;;
19828;SDS011;10075;50.924;4.396;2023-01-25T05:59:08;52.27;;;31.57;;
19828;SDS011;10075;50.924;4.396;2023-01-25T06:01:36;49.20;;;32.03;;
19828;SDS011;10075;50.924;4.396;2023-01-25T06:04:04;48.17;;;30.87;;
19828;SDS011;10075;50.924;4.396;2023-01-25T06:06:31;52.90;;;33.73;;
19828;SDS011;10075;50.924;4.396;2023-01-25T06:09:00;50.57;;;31.73;;
19828;SDS011;10075;50.924;4.396;2023-01-25T06:11:27;54.00;;;33.37;;
19828;SDS011;10075;50.924;4.396;2023-01-25T06:13:54;52.33;;;33.67;;
19828;SDS011;10075;50.924;4.396;2023-01-25T06:16:22;54.03;;;31.43;;
19828;SDS011;10075;50.924;4.396;2023-01-25T06:18:49;57.23;;;36.10;;
19828;SDS011;10075;50.924;4.396;2023-01-25T06:21:16;59.10;;;36.13;;
19828;SDS011;10075;50.924;4.396;2023-01-25T06:23:43;54.87;;;34.47;;
19828;SDS011;10075;50.924;4.396;2023-01-25T06:26:12;55.67;;;33.43;;
19828;SDS011;10075;50.924;4.396;2023-01-25T06:28:41;56.63;;;34.30;;
19828;SDS011;10075;50.924;4.396;2023-01-25T06:31:08;58.33;;;35.37;;
19828;SDS011;10075;50.924;4.396;2023-01-25T06:33:37;56.67;;;34.50;;
19828;SDS011;10075;50.924;4.396;2023-01-25T06:36:05;51.17;;;32.03;;
19828;SDS011;10075;50.924;4.396;2023-01-25T06:38:36;45.67;;;29.63;;
19828;SDS011;10075;50.924;4.396;2023-01-25T06:41:04;53.50;;;34.20;;
19828;SDS011;10075;50.924;4.396;2023-01-25T06:43:33;49.90;;;32.03;;
19828;SDS011;10075;50.924;4.396;2023-01-25T06:46:02;53.23;;;32.87;;
19828;SDS011;10075;50.924;4.396;2023-01-25T06:48:31;52.50;;;31.67;;
19828;SDS011;10075;50.924;4.396;2023-01-25T06:50:59;47.13;;;30.53;;
19828;SDS011;10075;50.924;4.396;2023-01-25T06:53:28;52.60;;;32.03;;
19828;SDS011;10075;50.924;4.396;2023-01-25T06:55:57;53.90;;;34.57;;
19828;SDS011;10075;50.924;4.396;2023-01-25T06:58:25;57.33;;;34.30;;
19828;SDS011;10075;50.924;4.396;2023-01-25T07:00:53;59.40;;;35.97;;
19828;SDS011;10075;50.924;4.396;2023-01-25T07:03:25;59.77;;;35.20;;
19828;SDS011;10075;50.924;4.396;2023-01-25T07:05:55;63.43;;;39.37;;
19828;SDS011;10075;50.924;4.396;2023-01-25T07:08:24;68.33;;;38.10;;
19828;SDS011;10075;50.924;4.396;2023-01-25T07:10:54;67.00;;;38.00;;
19828;SDS011;10075;50.924;4.396;2023-01-25T07:13:22;65.00;;;38.20;;
19828;SDS011;10075;50.924;4.396;2023-01-25T07:15:55;60.37;;;36.17;;
19828;SDS011;10075;50.924;4.396;2023-01-25T07:18:23;56.10;;;34.90;;
19828;SDS011;10075;50.924;4.396;2023-01-25T07:20:51;58.43;;;36.57;;
19828;SDS011;10075;50.924;4.396;2023-01-25T07:23:18;61.87;;;38.03;;
19828;SDS011;10075;50.924;4.396;2023-01-25T07:25:45;61.70;;;38.10;;
19828;SDS011;10075;50.924;4.396;2023-01-25T07:28:14;60.63;;;36.87;;
19828;SDS011;10075;50.924;4.396;2023-01-25T07:30:41;57.63;;;34.77;;
19828;SDS011;10075;50.924;4.396;2023-01-25T07:33:10;57.80;;;35.17;;
19828;SDS011;10075;50.924;4.396;2023-01-25T07:35:37;54.93;;;33.47;;
19828;SDS011;10075;50.924;4.396;2023-01-25T07:38:04;57.97;;;34.80;;
19828;SDS011;10075;50.924;4.396;2023-01-25T07:40:32;58.53;;;34.70;;
19828;SDS011;10075;50.924;4.396;2023-01-25T07:42:59;63.27;;;36.43;;
19828;SDS011;10075;50.924;4.396;2023-01-25T07:45:26;61.33;;;34.20;;
19828;SDS011;10075;50.924;4.396;2023-01-25T07:47:54;57.57;;;35.30;;
19828;SDS011;10075;50.924;4.396;2023-01-25T07:50:24;58.83;;;37.03;;
19828;SDS011;10075;50.924;4.396;2023-01-25T07:52:52;58.87;;;33.90;;
19828;SDS011;10075;50.924;4.396;2023-01-25T07:55:19;52.80;;;32.07;;
19828;SDS011;10075;50.924;4.396;2023-01-25T07:57:47;59.77;;;36.17;;
19828;SDS011;10075;50.924;4.396;2023-01-25T08:00:14;66.77;;;37.47;;
19828;SDS011;10075;50.924;4.396;2023-01-25T08:02:41;58.27;;;34.77;;
19828;SDS011;10075;50.924;4.396;2023-01-25T08:05:08;61.30;;;37.13;;
19828;SDS011;10075;50.924;4.396;2023-01-25T08:07:37;54.57;;;32.83;;
19828;SDS011;10075;50.924;4.396;2023-01-25T08:10:04;64.17;;;37.67;;
19828;SDS011;10075;50.924;4.396;2023-01-25T08:12:32;61.43;;;35.70;;
19828;SDS011;10075;50.924;4.396;2023-01-25T08:14:59;57.30;;;33.93;;
19828;SDS011;10075;50.924;4.396;2023-01-25T08:17:26;53.03;;;31.83;;
19828;SDS011;10075;50.924;4.396;2023-01-25T08:19:56;55.73;;;33.30;;
19828;SDS011;10075;50.924;4.396;2023-01-25T08:22:24;52.13;;;30.33;;
19828;SDS011;10075;50.924;4.396;2023-01-25T08:24:53;52.57;;;31.83;;
19828;SDS011;10075;50.924;4.396;2023-01-25T08:27:20;54.27;;;32.07;;
19828;SDS011;10075;50.924;4.396;2023-01-25T08:29:48;51.20;;;30.27;;
19828;SDS011;10075;50.924;4.396;2023-01-25T08:32:17;57.70;;;32.67;;
19828;SDS011;10075;50.924;4.396;2023-01-25T08:34:44;56.50;;;33.30;;
19828;SDS011;10075;50.924;4.396;2023-01-25T08:37:12;54.53;;;33.27;;
19828;SDS011;10075;50.924;4.396;2023-01-25T08:39:39;59.53;;;34.60;;
19828;SDS011;10075;50.924;4.396;2023-01-25T08:42:07;56.93;;;34.70;;
19828;SDS011;10075;50.924;4.396;2023-01-25T08:44:34;64.40;;;38.40;;
19828;SDS011;10075;50.924;4.396;2023-01-25T08:47:01;63.77;;;35.70;;
19828;SDS011;10075;50.924;4.396;2023-01-25T08:49:28;67.30;;;37.50;;
19828;SDS011;10075;50.924;4.396;2023-01-25T08:51:58;66.30;;;37.73;;
19828;SDS011;10075;50.924;4.396;2023-01-25T08:54:25;67.90;;;39.07;;
19828;SDS011;10075;50.924;4.396;2023-01-25T08:56:52;68.70;;;37.33;;
19828;SDS011;10075;50.924;4.396;2023-01-25T08:59:20;66.93;;;36.70;;
19828;SDS011;10075;50.924;4.396;2023-01-25T09:01:47;61.13;;;34.80;;
19828;SDS011;10075;50.924;4.396;2023-01-25T09:04:14;55.30;;;33.53;;
19828;SDS011;10075;50.924;4.396;2023-01-25T09:06:41;60.10;;;34.40;;
19828;SDS011;10075;50.924;4.396;2023-01-25T09:09:10;56.90;;;32.53;;
19828;SDS011;10075;50.924;4.396;2023-01-25T09:11:37;54.20;;;32.63;;
19828;SDS011;10075;50.924;4.396;2023-01-25T09:14:04;60.23;;;35.73;;
19828;SDS011;10075;50.924;4.396;2023-01-25T09:16:33;62.07;;;35.33;;
19828;SDS011;10075;50.924;4.396;2023-01-25T09:19:01;58.57;;;33.33;;
19828;SDS011;10075;50.924;4.396;2023-01-25T09:21:29;62.10;;;34.57;;
19828;SDS011;10075;50.924;4.396;2023-01-25T09:23:57;59.20;;;32.07;;
19828;SDS011;10075;50.924;4.396;2023-01-25T09:26:25;55.80;;;33.07;;
19828;SDS011;10075;50.924;4.396;2023-01-25T09:28:52;56.73;;;31.67;;
19828;SDS011;10075;50.924;4.396;2023-01-25T09:31:20;56.23;;;32.43;;
19828;SDS011;10075;50.924;4.396;2023-01-25T09:33:50;55.83;;;32.27;;
19828;SDS011;10075;50.924;4.396;2023-01-25T09:36:17;57.63;;;34.20;;
19828;SDS011;10075;50.924;4.396;2023-01-25T09:38:45;56.13;;;33.93;;
19828;SDS011;10075;50.924;4.396;2023-01-25T09:41:20;67.37;;;37.67;;
19828;SDS011;10075;50.924;4.396;2023-01-25T09:44:11;61.43;;;34.17;;
19828;SDS011;10075;50.924;4.396;2023-01-25T09:46:49;61.07;;;36.27;;
19828;SDS011;10075;50.924;4.396;2023-01-25T09:49:24;61.80;;;35.70;;
19828;SDS011;10075;50.924;4.396;2023-01-25T09:52:16;66.67;;;36.37;;
19828;SDS011;10075;50.924;4.396;2023-01-25T09:54:56;57.60;;;35.20;;
19828;SDS011;10075;50.924;4.396;2023-01-25T09:57:25;63.70;;;36.87;;
19828;SDS011;10075;50.924;4.396;2023-01-25T09:59:56;63.97;;;36.60;;
19828;SDS011;10075;50.924;4.396;2023-01-25T10:02:30;62.33;;;36.50;;
19828;SDS011;10075;50.924;4.396;2023-01-25T10:05:07;61.97;;;36.63;;
19828;SDS011;10075;50.924;4.396;2023-01-25T10:07:42;61.23;;;34.57;;
19828;SDS011;10075;50.924;4.396;2023-01-25T10:10:19;59.27;;;35.07;;
19828;SDS011;10075;50.924;4.396;2023-01-25T10:12:50;57.77;;;32.83;;
19828;SDS011;10075;50.924;4.396;2023-01-25T10:15:17;60.03;;;35.20;;
19828;SDS011;10075;50.924;4.396;2023-01-25T10:17:45;55.03;;;33.90;;
19828;SDS011;10075;50.924;4.396;2023-01-25T10:20:25;62.53;;;36.77;;
19828;SDS011;10075;50.924;4.396;2023-01-25T10:23:08;63.67;;;37.40;;
19828;SDS011;10075;50.924;4.396;2023-01-25T10:25:50;65.67;;;37.53;;
19828;SDS011;10075;50.924;4.396;2023-01-25T10:28:28;65.50;;;37.37;;
19828;SDS011;10075;50.924;4.396;2023-01-25T10:31:03;67.40;;;36.87;;
19828;SDS011;10075;50.924;4.396;2023-01-25T10:33:33;68.07;;;37.60;;
19828;SDS011;10075;50.924;4.396;2023-01-25T10:36:08;67.83;;;39.27;;
19828;SDS011;10075;50.924;4.396;2023-01-25T10:38:39;68.90;;;38.37;;
19828;SDS011;10075;50.924;4.396;2023-01-25T10:41:09;68.50;;;38.70;;
19828;SDS011;10075;50.924;4.396;2023-01-25T10:43:41;63.30;;;36.47;;
19828;SDS011;10075;50.924;4.396;2023-01-25T10:46:14;68.93;;;38.40;;
19828;SDS011;10075;50.924;4.396;2023-01-25T10:48:44;68.63;;;38.97;;
19828;SDS011;10075;50.924;4.396;2023-01-25T10:51:23;64.80;;;39.47;;
19828;SDS011;10075;50.924;4.396;2023-01-25T10:53:57;64.47;;;37.90;;
19828;SDS011;10075;50.924;4.396;2023-01-25T10:56:26;67.17;;;38.07;;
19828;SDS011;10075;50.924;4.396;2023-01-25T10:59:04;65.13;;;38.57;;
19828;SDS011;10075;50.924;4.396;2023-01-25T11:04:20;67.80;;;39.93;;
19828;SDS011;10075;50.924;4.396;2023-01-25T11:06:52;65.53;;;37.27;;
19828;SDS011;10075;50.924;4.396;2023-01-25T11:09:29;68.20;;;39.93;;
19828;SDS011;10075;50.924;4.396;2023-01-25T11:12:01;72.73;;;40.83;;
19828;SDS011;10075;50.924;4.396;2023-01-25T11:14:30;66.80;;;37.97;;
19828;SDS011;10075;50.924;4.396;2023-01-25T11:16:58;74.17;;;40.47;;
19828;SDS011;10075;50.924;4.396;2023-01-25T11:19:27;70.33;;;40.27;;
19828;SDS011;10075;50.924;4.396;2023-01-25T11:22:00;74.13;;;40.43;;
19828;SDS011;10075;50.924;4.396;2023-01-25T11:24:29;70.37;;;39.83;;
19828;SDS011;10075;50.924;4.396;2023-01-25T11:27:14;70.27;;;41.00;;
19828;SDS011;10075;50.924;4.396;2023-01-25T11:29:44;68.07;;;37.83;;
19828;SDS011;10075;50.924;4.396;2023-01-25T11:32:31;68.70;;;39.87;;
19828;SDS011;10075;50.924;4.396;2023-01-25T11:34:58;70.77;;;40.00;;
19828;SDS011;10075;50.924;4.396;2023-01-25T11:37:30;67.80;;;38.60;;
19828;SDS011;10075;50.924;4.396;2023-01-25T11:40:12;61.70;;;33.37;;
19828;SDS011;10075;50.924;4.396;2023-01-25T11:42:48;68.90;;;38.73;;
19828;SDS011;10075;50.924;4.396;2023-01-25T11:48:19;70.97;;;41.00;;
19828;SDS011;10075;50.924;4.396;2023-01-25T11:51:11;68.93;;;37.77;;
19828;SDS011;10075;50.924;4.396;2023-01-25T11:53:50;72.50;;;40.50;;
19828;SDS011;10075;50.924;4.396;2023-01-25T11:56:27;77.80;;;43.17;;
19828;SDS011;10075;50.924;4.396;2023-01-25T11:59:15;67.97;;;37.93;;
19828;SDS011;10075;50.924;4.396;2023-01-25T12:02:03;68.93;;;38.00;;
19828;SDS011;10075;50.924;4.396;2023-01-25T12:04:44;68.23;;;38.10;;
19828;SDS011;10075;50.924;4.396;2023-01-25T12:07:31;65.50;;;37.90;;
19828;SDS011;10075;50.924;4.396;2023-01-25T12:10:16;67.27;;;37.30;;
19828;SDS011;10075;50.924;4.396;2023-01-25T12:12:50;69.13;;;41.30;;
19828;SDS011;10075;50.924;4.396;2023-01-25T12:15:29;73.23;;;40.30;;
19828;SDS011;10075;50.924;4.396;2023-01-25T12:18:28;70.30;;;39.83;;
19828;SDS011;10075;50.924;4.396;2023-01-25T12:21:23;67.00;;;36.93;;
19828;SDS011;10075;50.924;4.396;2023-01-25T12:24:03;68.80;;;39.27;;
19828;SDS011;10075;50.924;4.396;2023-01-25T12:26:45;67.43;;;39.50;;
19828;SDS011;10075;50.924;4.396;2023-01-25T12:29:19;74.83;;;42.17;;
19828;SDS011;10075;50.924;4.396;2023-01-25T12:31:53;68.80;;;38.67;;
19828;SDS011;10075;50.924;4.396;2023-01-25T12:34:25;72.30;;;41.73;;
19828;SDS011;10075;50.924;4.396;2023-01-25T12:36:57;71.33;;;40.93;;
19828;SDS011;10075;50.924;4.396;2023-01-25T12:39:29;68.77;;;39.80;;
19828;SDS011;10075;50.924;4.396;2023-01-25T12:42:02;71.43;;;40.27;;
19828;SDS011;10075;50.924;4.396;2023-01-25T12:44:34;60.37;;;34.13;;
19828;SDS011;10075;50.924;4.396;2023-01-25T12:47:04;72.17;;;42.43;;
19828;SDS011;10075;50.924;4.396;2023-01-25T12:49:39;69.03;;;38.57;;
19828;SDS011;10075;50.924;4.396;2023-01-25T12:52:14;68.23;;;40.07;;
19828;SDS011;10075;50.924;4.396;2023-01-25T12:54:47;72.77;;;42.57;;
19828;SDS011;10075;50.924;4.396;2023-01-25T12:57:20;76.00;;;43.40;;
19828;SDS011;10075;50.924;4.396;2023-01-25T12:59:54;73.77;;;42.90;;
19828;SDS011;10075;50.924;4.396;2023-01-25T13:05:25;69.10;;;39.37;;
19828;SDS011;10075;50.924;4.396;2023-01-25T13:08:01;80.87;;;42.27;;
19828;SDS011;10075;50.924;4.396;2023-01-25T13:10:37;69.97;;;39.97;;
19828;SDS011;10075;50.924;4.396;2023-01-25T13:13:19;74.87;;;43.60;;
19828;SDS011;10075;50.924;4.396;2023-01-25T13:15:48;76.63;;;42.37;;
19828;SDS011;10075;50.924;4.396;2023-01-25T13:24:10;76.00;;;43.13;;
19828;SDS011;10075;50.924;4.396;2023-01-25T13:26:46;76.03;;;42.27;;
19828;SDS011;10075;50.924;4.396;2023-01-25T13:38:31;67.87;;;38.53;;
19828;SDS011;10075;50.924;4.396;2023-01-25T13:41:10;73.73;;;39.67;;
19828;SDS011;10075;50.924;4.396;2023-01-25T13:43:41;71.40;;;39.97;;
19828;SDS011;10075;50.924;4.396;2023-01-25T13:46:15;74.50;;;43.20;;
19828;SDS011;10075;50.924;4.396;2023-01-25T13:48:49;76.77;;;42.53;;
19828;SDS011;10075;50.924;4.396;2023-01-25T13:51:24;70.50;;;38.83;;
19828;SDS011;10075;50.924;4.396;2023-01-25T13:53:55;71.50;;;40.73;;
19828;SDS011;10075;50.924;4.396;2023-01-25T13:56:25;78.50;;;42.23;;
19828;SDS011;10075;50.924;4.396;2023-01-25T13:58:53;74.33;;;42.77;;
19828;SDS011;10075;50.924;4.396;2023-01-25T14:01:20;79.50;;;45.37;;
19828;SDS011;10075;50.924;4.396;2023-01-25T14:03:49;74.10;;;41.10;;
19828;SDS011;10075;50.924;4.396;2023-01-25T14:06:21;74.63;;;41.13;;
19828;SDS011;10075;50.924;4.396;2023-01-25T14:08:52;70.27;;;39.90;;
19828;SDS011;10075;50.924;4.396;2023-01-25T14:11:21;69.73;;;39.40;;
19828;SDS011;10075;50.924;4.396;2023-01-25T14:13:57;69.97;;;40.23;;
19828;SDS011;10075;50.924;4.396;2023-01-25T14:16:25;70.13;;;39.33;;
19828;SDS011;10075;50.924;4.396;2023-01-25T14:18:54;71.30;;;39.87;;
19828;SDS011;10075;50.924;4.396;2023-01-25T14:21:22;74.77;;;43.13;;
19828;SDS011;10075;50.924;4.396;2023-01-25T14:23:50;71.47;;;39.93;;
19828;SDS011;10075;50.924;4.396;2023-01-25T14:26:18;68.47;;;38.20;;
19828;SDS011;10075;50.924;4.396;2023-01-25T14:28:48;72.53;;;40.10;;
19828;SDS011;10075;50.924;4.396;2023-01-25T14:31:21;69.27;;;37.80;;
19828;SDS011;10075;50.924;4.396;2023-01-25T14:33:50;72.13;;;40.20;;
19828;SDS011;10075;50.924;4.396;2023-01-25T14:36:25;71.33;;;39.43;;
19828;SDS011;10075;50.924;4.396;2023-01-25T14:38:53;69.63;;;38.80;;
19828;SDS011;10075;50.924;4.396;2023-01-25T14:41:21;71.23;;;40.97;;
19828;SDS011;10075;50.924;4.396;2023-01-25T14:43:53;75.77;;;43.63;;
19828;SDS011;10075;50.924;4.396;2023-01-25T14:46:24;69.97;;;37.30;;
19828;SDS011;10075;50.924;4.396;2023-01-25T14:49:14;74.33;;;40.37;;
19828;SDS011;10075;50.924;4.396;2023-01-25T14:51:52;69.20;;;37.67;;
19828;SDS011;10075;50.924;4.396;2023-01-25T14:54:23;67.17;;;38.90;;
19828;SDS011;10075;50.924;4.396;2023-01-25T14:56:54;70.13;;;40.00;;
19828;SDS011;10075;50.924;4.396;2023-01-25T14:59:23;70.37;;;38.30;;
19828;SDS011;10075;50.924;4.396;2023-01-25T15:01:54;77.87;;;42.87;;
19828;SDS011;10075;50.924;4.396;2023-01-25T15:04:23;73.57;;;39.10;;